sensor_id;sensor_type;location;lat;lon;timestamp;P1;durP1;ratioP1;P2;durP2;ratioP2
42760;SDS011;31672;47.638;19.026;2023-12-20T00:02:13;42.87;;;9.47;;
42760;SDS011;31672;47.638;19.026;2023-12-20T00:07:16;38.43;;;9.27;;
42760;SDS011;31672;47.638;19.026;2023-12-20T00:12:20;37.53;;;8.27;;
42760;SDS011;31672;47.638;19.026;2023-12-20T00:17:23;52.43;;;9.40;;
42760;SDS011;31672;47.638;19.026;2023-12-20T00:22:26;38.73;;;9.60;;
42760;SDS011;31672;47.638;19.026;2023-12-20T00:27:29;51.30;;;9.93;;
42760;SDS011;31672;47.638;19.026;2023-12-20T00:32:33;50.27;;;10.63;;
42760;SDS011;31672;47.638;19.026;2023-12-20T00:37:38;37.17;;;8.53;;
42760;SDS011;31672;47.638;19.026;2023-12-20T00:42:41;57.83;;;10.23;;
42760;SDS011;31672;47.638;19.026;2023-12-20T00:47:44;45.27;;;10.43;;
42760;SDS011;31672;47.638;19.026;2023-12-20T00:52:48;35.57;;;8.57;;
42760;SDS011;31672;47.638;19.026;2023-12-20T00:57:52;41.30;;;9.47;;
42760;SDS011;31672;47.638;19.026;2023-12-20T01:02:56;39.17;;;9.07;;
42760;SDS011;31672;47.638;19.026;2023-12-20T01:07:59;41.67;;;9.63;;
42760;SDS011;31672;47.638;19.026;2023-12-20T01:13:05;40.73;;;8.83;;
42760;SDS011;31672;47.638;19.026;2023-12-20T01:18:08;35.43;;;8.27;;
42760;SDS011;31672;47.638;19.026;2023-12-20T01:23:12;41.67;;;9.00;;
42760;SDS011;31672;47.638;19.026;2023-12-20T01:28:16;26.57;;;8.70;;
42760;SDS011;31672;47.638;19.026;2023-12-20T01:33:19;50.17;;;9.40;;
42760;SDS011;31672;47.638;19.026;2023-12-20T01:38:23;40.37;;;10.33;;
42760;SDS011;31672;47.638;19.026;2023-12-20T01:43:26;78.00;;;11.20;;
42760;SDS011;31672;47.638;19.026;2023-12-20T01:48:34;33.37;;;9.20;;
42760;SDS011;31672;47.638;19.026;2023-12-20T01:53:38;28.87;;;8.17;;
42760;SDS011;31672;47.638;19.026;2023-12-20T01:58:44;35.73;;;8.43;;
42760;SDS011;31672;47.638;19.026;2023-12-20T02:03:49;41.70;;;8.93;;
42760;SDS011;31672;47.638;19.026;2023-12-20T02:08:54;27.83;;;7.23;;
42760;SDS011;31672;47.638;19.026;2023-12-20T02:13:57;67.37;;;10.77;;
42760;SDS011;31672;47.638;19.026;2023-12-20T02:19:00;55.10;;;9.23;;
42760;SDS011;31672;47.638;19.026;2023-12-20T02:24:05;42.20;;;9.47;;
42760;SDS011;31672;47.638;19.026;2023-12-20T02:29:08;49.73;;;7.73;;
42760;SDS011;31672;47.638;19.026;2023-12-20T02:34:12;48.53;;;9.13;;
42760;SDS011;31672;47.638;19.026;2023-12-20T02:39:15;39.43;;;8.80;;
42760;SDS011;31672;47.638;19.026;2023-12-20T02:44:18;36.90;;;8.90;;
42760;SDS011;31672;47.638;19.026;2023-12-20T02:49:22;33.37;;;7.60;;
42760;SDS011;31672;47.638;19.026;2023-12-20T02:54:25;35.73;;;9.13;;
42760;SDS011;31672;47.638;19.026;2023-12-20T02:59:28;27.57;;;7.23;;
42760;SDS011;31672;47.638;19.026;2023-12-20T03:04:32;36.20;;;8.63;;
42760;SDS011;31672;47.638;19.026;2023-12-20T03:09:35;32.73;;;9.37;;
42760;SDS011;31672;47.638;19.026;2023-12-20T03:14:59;31.33;;;8.40;;
42760;SDS011;31672;47.638;19.026;2023-12-20T03:20:02;30.63;;;9.50;;
42760;SDS011;31672;47.638;19.026;2023-12-20T03:25:06;21.97;;;8.17;;
42760;SDS011;31672;47.638;19.026;2023-12-20T03:30:10;27.70;;;7.57;;
42760;SDS011;31672;47.638;19.026;2023-12-20T03:35:13;36.87;;;10.07;;
42760;SDS011;31672;47.638;19.026;2023-12-20T03:40:17;30.57;;;8.37;;
42760;SDS011;31672;47.638;19.026;2023-12-20T03:45:20;32.17;;;9.20;;
42760;SDS011;31672;47.638;19.026;2023-12-20T03:50:24;26.00;;;9.57;;
42760;SDS011;31672;47.638;19.026;2023-12-20T03:55:28;30.57;;;7.90;;
42760;SDS011;31672;47.638;19.026;2023-12-20T04:00:31;40.03;;;9.50;;
42760;SDS011;31672;47.638;19.026;2023-12-20T04:05:35;37.13;;;9.63;;
42760;SDS011;31672;47.638;19.026;2023-12-20T04:10:38;29.00;;;9.80;;
42760;SDS011;31672;47.638;19.026;2023-12-20T04:15:42;33.43;;;9.00;;
42760;SDS011;31672;47.638;19.026;2023-12-20T04:20:46;38.97;;;9.30;;
42760;SDS011;31672;47.638;19.026;2023-12-20T04:25:49;34.60;;;10.23;;
42760;SDS011;31672;47.638;19.026;2023-12-20T04:30:52;45.00;;;10.43;;
42760;SDS011;31672;47.638;19.026;2023-12-20T04:35:56;29.77;;;10.30;;
42760;SDS011;31672;47.638;19.026;2023-12-20T04:41:00;35.63;;;10.47;;
42760;SDS011;31672;47.638;19.026;2023-12-20T04:46:03;27.40;;;8.97;;
42760;SDS011;31672;47.638;19.026;2023-12-20T04:51:07;36.30;;;10.47;;
42760;SDS011;31672;47.638;19.026;2023-12-20T04:56:10;38.93;;;9.03;;
42760;SDS011;31672;47.638;19.026;2023-12-20T05:01:13;34.77;;;9.17;;
42760;SDS011;31672;47.638;19.026;2023-12-20T05:06:17;32.90;;;7.97;;
42760;SDS011;31672;47.638;19.026;2023-12-20T05:11:20;34.87;;;8.27;;
42760;SDS011;31672;47.638;19.026;2023-12-20T05:16:24;34.00;;;8.43;;
42760;SDS011;31672;47.638;19.026;2023-12-20T05:21:27;33.37;;;8.60;;
42760;SDS011;31672;47.638;19.026;2023-12-20T05:26:30;39.13;;;9.47;;
42760;SDS011;31672;47.638;19.026;2023-12-20T05:31:34;31.17;;;8.37;;
42760;SDS011;31672;47.638;19.026;2023-12-20T05:36:37;33.00;;;9.07;;
42760;SDS011;31672;47.638;19.026;2023-12-20T05:41:42;27.87;;;8.70;;
42760;SDS011;31672;47.638;19.026;2023-12-20T05:46:45;23.50;;;9.33;;
42760;SDS011;31672;47.638;19.026;2023-12-20T05:51:49;30.97;;;8.47;;
42760;SDS011;31672;47.638;19.026;2023-12-20T05:56:53;25.47;;;7.57;;
42760;SDS011;31672;47.638;19.026;2023-12-20T06:01:57;26.73;;;8.60;;
42760;SDS011;31672;47.638;19.026;2023-12-20T06:07:00;29.17;;;8.33;;
42760;SDS011;31672;47.638;19.026;2023-12-20T06:12:03;31.00;;;9.23;;
42760;SDS011;31672;47.638;19.026;2023-12-20T06:17:07;30.40;;;8.30;;
42760;SDS011;31672;47.638;19.026;2023-12-20T06:22:11;33.40;;;8.87;;
42760;SDS011;31672;47.638;19.026;2023-12-20T06:27:14;27.40;;;9.17;;
42760;SDS011;31672;47.638;19.026;2023-12-20T06:32:17;27.13;;;10.40;;
42760;SDS011;31672;47.638;19.026;2023-12-20T06:37:21;25.20;;;9.80;;
42760;SDS011;31672;47.638;19.026;2023-12-20T06:42:29;25.37;;;10.13;;
42760;SDS011;31672;47.638;19.026;2023-12-20T06:47:37;24.47;;;7.93;;
42760;SDS011;31672;47.638;19.026;2023-12-20T06:52:40;21.87;;;7.80;;
42760;SDS011;31672;47.638;19.026;2023-12-20T06:57:44;26.90;;;8.97;;
42760;SDS011;31672;47.638;19.026;2023-12-20T07:02:47;28.83;;;8.97;;
42760;SDS011;31672;47.638;19.026;2023-12-20T07:07:51;34.10;;;9.60;;
42760;SDS011;31672;47.638;19.026;2023-12-20T07:12:55;26.07;;;9.00;;
42760;SDS011;31672;47.638;19.026;2023-12-20T07:17:58;25.33;;;9.23;;
42760;SDS011;31672;47.638;19.026;2023-12-20T07:23:03;22.73;;;9.00;;
42760;SDS011;31672;47.638;19.026;2023-12-20T07:28:06;43.97;;;9.97;;
42760;SDS011;31672;47.638;19.026;2023-12-20T07:33:10;28.93;;;7.93;;
42760;SDS011;31672;47.638;19.026;2023-12-20T07:38:15;35.67;;;9.83;;
42760;SDS011;31672;47.638;19.026;2023-12-20T07:43:19;37.37;;;10.87;;
42760;SDS011;31672;47.638;19.026;2023-12-20T07:48:23;49.07;;;11.40;;
42760;SDS011;31672;47.638;19.026;2023-12-20T07:53:26;28.17;;;7.73;;
42760;SDS011;31672;47.638;19.026;2023-12-20T07:58:29;51.23;;;9.77;;
42760;SDS011;31672;47.638;19.026;2023-12-20T08:03:51;29.00;;;8.35;;
42760;SDS011;31672;47.638;19.026;2023-12-20T08:08:55;28.47;;;10.10;;
42760;SDS011;31672;47.638;19.026;2023-12-20T08:14:08;30.37;;;9.80;;
42760;SDS011;31672;47.638;19.026;2023-12-20T08:19:12;41.53;;;11.60;;
42760;SDS011;31672;47.638;19.026;2023-12-20T08:24:16;31.87;;;10.10;;
42760;SDS011;31672;47.638;19.026;2023-12-20T08:29:19;35.67;;;12.00;;
42760;SDS011;31672;47.638;19.026;2023-12-20T08:34:23;41.73;;;13.03;;
42760;SDS011;31672;47.638;19.026;2023-12-20T08:39:27;32.57;;;9.77;;
42760;SDS011;31672;47.638;19.026;2023-12-20T08:44:32;35.27;;;10.70;;
42760;SDS011;31672;47.638;19.026;2023-12-20T08:49:36;45.57;;;11.93;;
42760;SDS011;31672;47.638;19.026;2023-12-20T08:54:39;36.47;;;11.70;;
42760;SDS011;31672;47.638;19.026;2023-12-20T08:59:44;50.57;;;14.67;;
42760;SDS011;31672;47.638;19.026;2023-12-20T09:04:48;40.63;;;11.40;;
42760;SDS011;31672;47.638;19.026;2023-12-20T09:09:52;73.73;;;15.60;;
42760;SDS011;31672;47.638;19.026;2023-12-20T09:14:55;44.93;;;13.40;;
42760;SDS011;31672;47.638;19.026;2023-12-20T09:19:59;42.03;;;12.13;;
42760;SDS011;31672;47.638;19.026;2023-12-20T09:25:04;38.27;;;12.83;;
42760;SDS011;31672;47.638;19.026;2023-12-20T09:30:08;44.33;;;15.70;;
42760;SDS011;31672;47.638;19.026;2023-12-20T09:35:12;39.30;;;13.57;;
42760;SDS011;31672;47.638;19.026;2023-12-20T09:40:20;39.90;;;11.87;;
42760;SDS011;31672;47.638;19.026;2023-12-20T09:45:25;42.43;;;11.57;;
42760;SDS011;31672;47.638;19.026;2023-12-20T09:50:28;56.73;;;13.27;;
42760;SDS011;31672;47.638;19.026;2023-12-20T09:55:35;39.77;;;11.70;;
42760;SDS011;31672;47.638;19.026;2023-12-20T10:00:40;37.17;;;11.10;;
42760;SDS011;31672;47.638;19.026;2023-12-20T10:05:43;58.93;;;17.57;;
42760;SDS011;31672;47.638;19.026;2023-12-20T10:10:48;49.37;;;14.80;;
42760;SDS011;31672;47.638;19.026;2023-12-20T10:15:52;42.13;;;13.87;;
42760;SDS011;31672;47.638;19.026;2023-12-20T10:20:55;47.77;;;16.57;;
42760;SDS011;31672;47.638;19.026;2023-12-20T10:25:59;41.67;;;13.07;;
42760;SDS011;31672;47.638;19.026;2023-12-20T10:31:03;49.13;;;14.77;;
42760;SDS011;31672;47.638;19.026;2023-12-20T10:36:07;58.57;;;15.10;;
42760;SDS011;31672;47.638;19.026;2023-12-20T10:41:12;30.23;;;11.80;;
42760;SDS011;31672;47.638;19.026;2023-12-20T10:46:19;58.47;;;15.53;;
42760;SDS011;31672;47.638;19.026;2023-12-20T10:51:23;72.03;;;14.97;;
42760;SDS011;31672;47.638;19.026;2023-12-20T10:56:32;59.90;;;17.20;;
42760;SDS011;31672;47.638;19.026;2023-12-20T11:01:36;61.13;;;18.67;;
42760;SDS011;31672;47.638;19.026;2023-12-20T11:06:56;57.07;;;19.07;;
42760;SDS011;31672;47.638;19.026;2023-12-20T11:17:55;60.10;;;26.07;;
42760;SDS011;31672;47.638;19.026;2023-12-20T11:22:59;51.60;;;18.43;;
42760;SDS011;31672;47.638;19.026;2023-12-20T11:28:06;43.80;;;16.97;;
42760;SDS011;31672;47.638;19.026;2023-12-20T11:33:13;48.17;;;17.33;;
42760;SDS011;31672;47.638;19.026;2023-12-20T11:38:21;62.73;;;18.13;;
42760;SDS011;31672;47.638;19.026;2023-12-20T11:43:35;65.17;;;21.63;;
42760;SDS011;31672;47.638;19.026;2023-12-20T11:48:40;54.33;;;19.33;;
42760;SDS011;31672;47.638;19.026;2023-12-20T11:53:43;61.47;;;22.50;;
42760;SDS011;31672;47.638;19.026;2023-12-20T11:58:46;58.27;;;22.50;;
42760;SDS011;31672;47.638;19.026;2023-12-20T12:04:05;52.70;;;20.70;;
42760;SDS011;31672;47.638;19.026;2023-12-20T12:09:10;46.57;;;18.00;;
42760;SDS011;31672;47.638;19.026;2023-12-20T12:14:13;53.97;;;21.07;;
42760;SDS011;31672;47.638;19.026;2023-12-20T12:19:23;38.07;;;16.20;;
42760;SDS011;31672;47.638;19.026;2023-12-20T12:24:29;44.97;;;18.97;;
42760;SDS011;31672;47.638;19.026;2023-12-20T12:29:33;30.53;;;14.33;;
42760;SDS011;31672;47.638;19.026;2023-12-20T12:34:38;10.73;;;5.90;;
42760;SDS011;31672;47.638;19.026;2023-12-20T12:39:42;8.53;;;4.40;;
42760;SDS011;31672;47.638;19.026;2023-12-20T12:44:47;7.67;;;4.00;;
42760;SDS011;31672;47.638;19.026;2023-12-20T12:49:51;6.40;;;4.10;;
42760;SDS011;31672;47.638;19.026;2023-12-20T12:54:56;7.60;;;4.30;;
42760;SDS011;31672;47.638;19.026;2023-12-20T13:00:00;8.50;;;4.23;;
42760;SDS011;31672;47.638;19.026;2023-12-20T13:05:06;7.17;;;3.90;;
42760;SDS011;31672;47.638;19.026;2023-12-20T13:10:11;8.43;;;4.20;;
42760;SDS011;31672;47.638;19.026;2023-12-20T13:15:14;7.60;;;4.30;;
42760;SDS011;31672;47.638;19.026;2023-12-20T13:20:17;8.13;;;3.70;;
42760;SDS011;31672;47.638;19.026;2023-12-20T13:25:21;7.50;;;3.90;;
42760;SDS011;31672;47.638;19.026;2023-12-20T13:30:24;7.77;;;4.37;;
42760;SDS011;31672;47.638;19.026;2023-12-20T13:35:28;5.63;;;3.17;;
42760;SDS011;31672;47.638;19.026;2023-12-20T13:40:32;6.17;;;2.60;;
42760;SDS011;31672;47.638;19.026;2023-12-20T13:45:36;5.63;;;2.97;;
42760;SDS011;31672;47.638;19.026;2023-12-20T13:50:40;5.67;;;3.50;;
42760;SDS011;31672;47.638;19.026;2023-12-20T13:55:43;6.53;;;3.13;;
42760;SDS011;31672;47.638;19.026;2023-12-20T14:00:46;6.13;;;3.13;;
42760;SDS011;31672;47.638;19.026;2023-12-20T14:05:51;4.83;;;2.90;;
42760;SDS011;31672;47.638;19.026;2023-12-20T14:10:57;4.53;;;2.30;;
42760;SDS011;31672;47.638;19.026;2023-12-20T14:16:01;5.13;;;2.87;;
42760;SDS011;31672;47.638;19.026;2023-12-20T14:21:06;3.90;;;2.50;;
42760;SDS011;31672;47.638;19.026;2023-12-20T14:26:10;4.47;;;1.97;;
42760;SDS011;31672;47.638;19.026;2023-12-20T14:31:16;4.20;;;2.13;;
42760;SDS011;31672;47.638;19.026;2023-12-20T14:36:21;4.17;;;2.33;;
42760;SDS011;31672;47.638;19.026;2023-12-20T14:41:24;4.77;;;2.67;;
42760;SDS011;31672;47.638;19.026;2023-12-20T14:46:28;3.80;;;2.03;;
42760;SDS011;31672;47.638;19.026;2023-12-20T14:51:32;5.27;;;2.37;;
42760;SDS011;31672;47.638;19.026;2023-12-20T14:56:35;4.57;;;2.60;;
42760;SDS011;31672;47.638;19.026;2023-12-20T15:01:44;5.03;;;2.43;;
42760;SDS011;31672;47.638;19.026;2023-12-20T15:06:47;5.73;;;2.43;;
42760;SDS011;31672;47.638;19.026;2023-12-20T15:11:51;4.63;;;2.10;;
42760;SDS011;31672;47.638;19.026;2023-12-20T15:16:54;23.80;;;9.47;;
42760;SDS011;31672;47.638;19.026;2023-12-20T15:21:58;28.90;;;19.97;;
42760;SDS011;31672;47.638;19.026;2023-12-20T15:27:02;7.50;;;3.90;;
42760;SDS011;31672;47.638;19.026;2023-12-20T15:32:06;5.47;;;3.50;;
42760;SDS011;31672;47.638;19.026;2023-12-20T15:37:09;4.50;;;2.60;;
42760;SDS011;31672;47.638;19.026;2023-12-20T15:42:13;3.87;;;2.23;;
42760;SDS011;31672;47.638;19.026;2023-12-20T15:47:16;4.23;;;2.70;;
42760;SDS011;31672;47.638;19.026;2023-12-20T15:52:21;4.87;;;2.40;;
42760;SDS011;31672;47.638;19.026;2023-12-20T15:57:24;5.37;;;2.47;;
42760;SDS011;31672;47.638;19.026;2023-12-20T16:02:30;9.27;;;4.27;;
42760;SDS011;31672;47.638;19.026;2023-12-20T16:07:34;7.10;;;3.03;;
42760;SDS011;31672;47.638;19.026;2023-12-20T16:12:38;5.77;;;3.40;;
42760;SDS011;31672;47.638;19.026;2023-12-20T16:17:42;6.77;;;3.87;;
42760;SDS011;31672;47.638;19.026;2023-12-20T16:22:46;6.23;;;3.20;;
42760;SDS011;31672;47.638;19.026;2023-12-20T16:27:49;6.30;;;3.60;;
42760;SDS011;31672;47.638;19.026;2023-12-20T16:32:53;15.23;;;6.53;;
42760;SDS011;31672;47.638;19.026;2023-12-20T16:37:58;9.73;;;5.57;;
42760;SDS011;31672;47.638;19.026;2023-12-20T16:43:01;8.33;;;4.77;;
42760;SDS011;31672;47.638;19.026;2023-12-20T16:48:06;11.37;;;5.97;;
42760;SDS011;31672;47.638;19.026;2023-12-20T16:53:09;13.60;;;5.90;;
42760;SDS011;31672;47.638;19.026;2023-12-20T16:58:13;15.80;;;6.50;;
42760;SDS011;31672;47.638;19.026;2023-12-20T17:03:17;11.80;;;5.37;;
42760;SDS011;31672;47.638;19.026;2023-12-20T17:08:22;13.13;;;6.77;;
42760;SDS011;31672;47.638;19.026;2023-12-20T17:13:26;13.40;;;5.20;;
42760;SDS011;31672;47.638;19.026;2023-12-20T17:18:33;10.33;;;4.73;;
42760;SDS011;31672;47.638;19.026;2023-12-20T17:23:37;7.47;;;3.60;;
42760;SDS011;31672;47.638;19.026;2023-12-20T17:28:41;5.40;;;2.40;;
42760;SDS011;31672;47.638;19.026;2023-12-20T17:33:45;6.77;;;3.70;;
42760;SDS011;31672;47.638;19.026;2023-12-20T17:38:49;6.90;;;4.00;;
42760;SDS011;31672;47.638;19.026;2023-12-20T17:43:53;7.63;;;3.57;;
42760;SDS011;31672;47.638;19.026;2023-12-20T17:49:00;9.70;;;4.97;;
42760;SDS011;31672;47.638;19.026;2023-12-20T17:54:04;10.63;;;4.07;;
42760;SDS011;31672;47.638;19.026;2023-12-20T17:59:08;13.37;;;4.90;;
42760;SDS011;31672;47.638;19.026;2023-12-20T18:04:11;11.77;;;6.13;;
42760;SDS011;31672;47.638;19.026;2023-12-20T18:09:15;15.07;;;6.27;;
42760;SDS011;31672;47.638;19.026;2023-12-20T18:14:19;13.50;;;6.77;;
42760;SDS011;31672;47.638;19.026;2023-12-20T18:19:23;16.13;;;6.83;;
42760;SDS011;31672;47.638;19.026;2023-12-20T18:24:27;11.30;;;6.40;;
42760;SDS011;31672;47.638;19.026;2023-12-20T18:29:30;15.07;;;6.63;;
42760;SDS011;31672;47.638;19.026;2023-12-20T18:34:34;27.40;;;9.80;;
42760;SDS011;31672;47.638;19.026;2023-12-20T18:39:38;18.40;;;7.43;;
42760;SDS011;31672;47.638;19.026;2023-12-20T18:44:42;19.93;;;7.37;;
42760;SDS011;31672;47.638;19.026;2023-12-20T18:49:48;12.80;;;6.23;;
42760;SDS011;31672;47.638;19.026;2023-12-20T18:54:52;16.17;;;7.87;;
42760;SDS011;31672;47.638;19.026;2023-12-20T18:59:56;11.73;;;6.43;;
42760;SDS011;31672;47.638;19.026;2023-12-20T19:05:04;12.13;;;5.53;;
42760;SDS011;31672;47.638;19.026;2023-12-20T19:10:09;9.17;;;5.10;;
42760;SDS011;31672;47.638;19.026;2023-12-20T19:15:13;7.97;;;4.77;;
42760;SDS011;31672;47.638;19.026;2023-12-20T19:20:16;8.27;;;4.63;;
42760;SDS011;31672;47.638;19.026;2023-12-20T19:25:21;7.43;;;3.57;;
42760;SDS011;31672;47.638;19.026;2023-12-20T19:30:25;5.77;;;3.50;;
42760;SDS011;31672;47.638;19.026;2023-12-20T19:35:29;6.83;;;2.80;;
42760;SDS011;31672;47.638;19.026;2023-12-20T19:40:35;6.67;;;3.03;;
42760;SDS011;31672;47.638;19.026;2023-12-20T19:45:39;6.13;;;2.50;;
42760;SDS011;31672;47.638;19.026;2023-12-20T19:50:43;5.30;;;2.90;;
42760;SDS011;31672;47.638;19.026;2023-12-20T19:55:46;6.00;;;3.00;;
42760;SDS011;31672;47.638;19.026;2023-12-20T20:00:49;4.83;;;2.93;;
42760;SDS011;31672;47.638;19.026;2023-12-20T20:05:57;6.27;;;3.30;;
42760;SDS011;31672;47.638;19.026;2023-12-20T20:11:01;7.60;;;4.10;;
42760;SDS011;31672;47.638;19.026;2023-12-20T20:16:04;5.43;;;3.30;;
42760;SDS011;31672;47.638;19.026;2023-12-20T20:21:08;5.40;;;2.67;;
42760;SDS011;31672;47.638;19.026;2023-12-20T20:26:15;6.40;;;2.97;;
42760;SDS011;31672;47.638;19.026;2023-12-20T20:31:18;6.77;;;3.97;;
42760;SDS011;31672;47.638;19.026;2023-12-20T20:36:22;26.87;;;9.67;;
42760;SDS011;31672;47.638;19.026;2023-12-20T20:41:31;9.73;;;4.70;;
42760;SDS011;31672;47.638;19.026;2023-12-20T20:46:40;11.87;;;4.73;;
42760;SDS011;31672;47.638;19.026;2023-12-20T20:51:49;24.00;;;8.60;;
42760;SDS011;31672;47.638;19.026;2023-12-20T20:56:53;24.97;;;9.40;;
42760;SDS011;31672;47.638;19.026;2023-12-20T21:01:57;51.43;;;14.13;;
42760;SDS011;31672;47.638;19.026;2023-12-20T21:07:01;12.37;;;6.13;;
42760;SDS011;31672;47.638;19.026;2023-12-20T21:12:06;13.23;;;6.70;;
42760;SDS011;31672;47.638;19.026;2023-12-20T21:17:09;9.43;;;4.27;;
42760;SDS011;31672;47.638;19.026;2023-12-20T21:22:13;8.67;;;4.23;;
42760;SDS011;31672;47.638;19.026;2023-12-20T21:27:16;5.40;;;3.10;;
42760;SDS011;31672;47.638;19.026;2023-12-20T21:32:20;5.30;;;3.27;;
42760;SDS011;31672;47.638;19.026;2023-12-20T21:37:24;7.33;;;3.80;;
42760;SDS011;31672;47.638;19.026;2023-12-20T21:42:28;5.43;;;3.03;;
42760;SDS011;31672;47.638;19.026;2023-12-20T21:47:31;9.70;;;4.30;;
42760;SDS011;31672;47.638;19.026;2023-12-20T21:52:35;7.93;;;3.57;;
42760;SDS011;31672;47.638;19.026;2023-12-20T21:57:38;7.23;;;3.70;;
42760;SDS011;31672;47.638;19.026;2023-12-20T22:02:42;7.83;;;3.83;;
42760;SDS011;31672;47.638;19.026;2023-12-20T22:07:46;14.20;;;5.00;;
42760;SDS011;31672;47.638;19.026;2023-12-20T22:12:50;8.63;;;3.40;;
42760;SDS011;31672;47.638;19.026;2023-12-20T22:17:54;6.13;;;3.20;;
42760;SDS011;31672;47.638;19.026;2023-12-20T22:22:57;9.80;;;5.00;;
42760;SDS011;31672;47.638;19.026;2023-12-20T22:28:00;11.93;;;5.63;;
42760;SDS011;31672;47.638;19.026;2023-12-20T22:33:04;4.63;;;2.40;;
42760;SDS011;31672;47.638;19.026;2023-12-20T22:38:07;3.80;;;2.00;;
42760;SDS011;31672;47.638;19.026;2023-12-20T22:43:11;4.20;;;2.40;;
42760;SDS011;31672;47.638;19.026;2023-12-20T22:48:14;5.30;;;1.80;;
42760;SDS011;31672;47.638;19.026;2023-12-20T22:53:18;4.27;;;2.10;;
42760;SDS011;31672;47.638;19.026;2023-12-20T22:58:21;4.97;;;2.43;;
42760;SDS011;31672;47.638;19.026;2023-12-20T23:03:24;4.03;;;1.90;;
42760;SDS011;31672;47.638;19.026;2023-12-20T23:08:28;11.00;;;2.40;;
42760;SDS011;31672;47.638;19.026;2023-12-20T23:13:32;4.97;;;1.73;;
42760;SDS011;31672;47.638;19.026;2023-12-20T23:18:36;5.30;;;1.53;;
42760;SDS011;31672;47.638;19.026;2023-12-20T23:23:39;5.67;;;1.50;;
42760;SDS011;31672;47.638;19.026;2023-12-20T23:28:43;3.63;;;1.57;;
42760;SDS011;31672;47.638;19.026;2023-12-20T23:33:46;4.00;;;1.30;;
42760;SDS011;31672;47.638;19.026;2023-12-20T23:38:50;2.93;;;1.30;;
42760;SDS011;31672;47.638;19.026;2023-12-20T23:43:53;2.03;;;1.10;;
42760;SDS011;31672;47.638;19.026;2023-12-20T23:48:57;1.67;;;1.00;;
42760;SDS011;31672;47.638;19.026;2023-12-20T23:54:00;2.30;;;1.10;;
42760;SDS011;31672;47.638;19.026;2023-12-20T23:59:04;1.77;;;0.93;;
